Terminal Aerodrome Forecast
Issued by NWS

Current Version | Previous Version | Text Only | Print | Product List | Glossary On
Versions: 1 2 3 4 5 6 7 8 9 10 11 12 13 14 15 16 17 18 19 20 21
300
FTUS42 KTAE 081720
TAFECP
TAF
KECP 081720Z 0818/0918 34010G18KT P6SM SCT250
     FM090000 36010KT P6SM BKN250
     FM091200 36010G16KT P6SM BKN150=

USA.gov is the U.S. government's official web portal to all federal, state and local government web resources and services.